Time;durP1;ratioP1;P1;durP2;ratioP2;P2;SDS_P1;SDS_P2;PMS_P1;PMS_P2;Temp;Humidity;BMP_temperature;BMP_pressure;BME280_temperature;BME280_humidity;BME280_pressure;Samples;Min_cycle;Max_cycle;Signal;HPM_P1;HPM_P2
2023/07/10 00:00:44;;;;;;;13.23;3.85;;;22.30;99.90;;;;;;5074077;28;20094;-68
2023/07/10 00:03:10;;;;;;;10.23;3.25;;;22.20;99.90;;;;;;5073957;28;20029;-69
2023/07/10 00:05:36;;;;;;;14.32;3.72;;;22.00;99.90;;;;;;5074157;28;20074;-69
2023/07/10 00:08:02;;;;;;;11.85;3.70;;;21.80;99.90;;;;;;5073669;28;20031;-68
2023/07/10 00:10:29;;;;;;;12.52;3.63;;;21.70;99.90;;;;;;5073690;28;20526;-69
2023/07/10 00:12:55;;;;;;;13.55;3.45;;;21.60;99.90;;;;;;5073376;28;20017;-69
2023/07/10 00:15:22;;;;;;;11.80;3.72;;;21.50;99.90;;;;;;5073609;28;20036;-69
2023/07/10 00:17:50;;;;;;;8.93;3.42;;;21.40;99.90;;;;;;5079353;28;20104;-69
2023/07/10 00:20:24;;;;;;;12.05;3.38;;;21.40;99.90;;;;;;5094075;28;20024;-69
2023/07/10 00:22:50;;;;;;;11.95;3.28;;;21.30;99.90;;;;;;5093549;28;20504;-70
2023/07/10 00:25:17;;;;;;;11.05;3.45;;;21.30;99.90;;;;;;5093608;28;20117;-69
2023/07/10 00:27:47;;;;;;;10.07;3.38;;;21.30;99.90;;;;;;5093817;28;20031;-68
2023/07/10 00:30:19;;;;;;;11.07;3.50;;;21.20;99.90;;;;;;5093342;28;20032;-69
2023/07/10 00:32:46;;;;;;;13.23;3.45;;;21.20;99.90;;;;;;5093661;28;20460;-69
2023/07/10 00:35:16;;;;;;;11.25;3.63;;;21.10;99.90;;;;;;5093450;28;20430;-69
2023/07/10 00:37:49;;;;;;;13.10;3.60;;;21.10;99.90;;;;;;5093316;28;20024;-70
2023/07/10 00:40:22;;;;;;;11.77;3.33;;;21.10;99.90;;;;;;5093404;28;20032;-69
2023/07/10 00:42:56;;;;;;;9.20;3.30;;;21.10;99.90;;;;;;5092964;28;20512;-69
2023/07/10 00:45:22;;;;;;;13.18;3.38;;;21.10;99.90;;;;;;5093271;28;20081;-69
2023/07/10 00:48:06;;;;;;;10.10;2.97;;;21.20;99.90;;;;;;5093366;28;20016;-69
2023/07/10 00:50:39;;;;;;;13.27;3.35;;;21.40;99.90;;;;;;5092676;28;20067;-69
2023/07/10 00:53:12;;;;;;;14.77;3.83;;;21.60;99.90;;;;;;5093300;28;20039;-69
2023/07/10 00:55:39;;;;;;;;;;;21.70;99.90;;;;;;5093515;28;20107;-69
2023/07/10 00:58:05;;;;;;;14.23;3.47;;;21.80;99.90;;;;;;5092821;28;19911;-69
2023/07/10 01:00:33;;;;;;;11.00;3.28;;;21.80;99.90;;;;;;5093348;28;20116;-69
2023/07/10 01:02:59;;;;;;;14.25;3.58;;;21.90;99.90;;;;;;5092913;28;20074;-69
2023/07/10 01:05:28;;;;;;;12.68;3.40;;;21.80;99.90;;;;;;5092801;28;20032;-69
2023/07/10 01:07:58;;;;;;;12.13;3.92;;;21.80;99.90;;;;;;5091417;28;20110;-69
2023/07/10 01:10:24;;;;;;;10.02;3.42;;;21.80;99.90;;;;;;5092614;28;20039;-69
2023/07/10 01:12:51;;;;;;;10.70;3.42;;;21.90;99.90;;;;;;5092930;28;20111;-69
2023/07/10 01:15:17;;;;;;;14.77;3.92;;;21.90;99.90;;;;;;5092720;28;20024;-69
2023/07/10 01:17:43;;;;;;;10.70;3.53;;;21.90;99.90;;;;;;5092638;28;20024;-69
2023/07/10 01:20:43;;;;;;;12.25;3.42;;;21.80;99.90;;;;;;5092597;28;20100;-69
2023/07/10 01:23:09;;;;;;;13.57;3.72;;;21.80;99.90;;;;;;5092377;28;20044;-70
2023/07/10 01:25:50;;;;;;;10.98;3.85;;;21.60;99.90;;;;;;5092051;28;20085;-70
2023/07/10 01:28:19;;;;;;;16.23;3.45;;;21.40;99.90;;;;;;5092585;28;20069;-70
2023/07/10 01:30:47;;;;;;;13.63;3.70;;;21.30;99.90;;;;;;5092685;28;20380;-69
2023/07/10 01:33:35;;;;;;;11.00;3.10;;;21.20;99.90;;;;;;5092437;28;20020;-69
2023/07/10 01:36:02;;;;;;;11.90;3.20;;;21.00;99.90;;;;;;5092257;28;20028;-70
2023/07/10 01:38:43;;;;;;;9.90;3.05;;;21.00;99.90;;;;;;5092199;28;20028;-70
2023/07/10 01:41:34;;;;;;;13.63;3.72;;;20.90;99.90;;;;;;5092028;28;20035;-69
2023/07/10 01:43:59;;;;;;;10.57;3.35;;;20.80;99.90;;;;;;5092601;28;20016;-69
2023/07/10 01:46:27;;;;;;;14.43;4.05;;;20.70;99.90;;;;;;5092199;28;20145;-69
2023/07/10 01:48:58;;;;;;;15.00;3.55;;;20.70;99.90;;;;;;5092141;28;20016;-69
2023/07/10 01:51:24;;;;;;;13.27;3.65;;;20.60;99.90;;;;;;5092006;28;20036;-69
2023/07/10 01:53:51;;;;;;;13.40;3.58;;;20.60;99.90;;;;;;5091701;28;20103;-69
2023/07/10 01:56:19;;;;;;;11.13;3.50;;;20.60;99.90;;;;;;5090725;28;20458;-70
2023/07/10 01:58:45;;;;;;;11.30;3.65;;;20.50;99.90;;;;;;5092286;28;20027;-69
2023/07/10 02:01:11;;;;;;;12.70;3.78;;;20.50;99.90;;;;;;5090717;28;20020;-69
2023/07/10 02:03:36;;;;;;;11.45;3.58;;;20.50;99.90;;;;;;5091897;28;20039;-69
2023/07/10 02:06:03;;;;;;;10.23;3.30;;;20.40;99.90;;;;;;5091723;28;20543;-69
2023/07/10 02:08:30;;;;;;;12.82;3.40;;;20.50;99.90;;;;;;5091779;28;20550;-69
2023/07/10 02:10:55;;;;;;;12.23;3.65;;;20.50;99.90;;;;;;5091622;28;20494;-69
2023/07/10 02:13:21;;;;;;;16.70;4.00;;;20.60;99.90;;;;;;5091631;28;20027;-69
2023/07/10 02:15:47;;;;;;;10.52;3.53;;;20.70;99.90;;;;;;5092071;28;20566;-69
2023/07/10 02:18:13;;;;;;;12.32;3.97;;;20.80;99.90;;;;;;5091577;28;20016;-69
2023/07/10 02:20:39;;;;;;;13.05;3.80;;;20.80;99.90;;;;;;5091529;28;20529;-70
2023/07/10 02:23:05;;;;;;;11.50;3.92;;;20.90;99.90;;;;;;5091144;28;20537;-69
2023/07/10 02:25:30;;;;;;;11.98;3.58;;;20.90;99.90;;;;;;5091357;28;20028;-68
2023/07/10 02:27:57;;;;;;;12.75;3.40;;;21.00;99.90;;;;;;5091905;28;20059;-69
2023/07/10 02:30:23;;;;;;;13.35;3.60;;;20.90;99.90;;;;;;5091337;28;20414;-70
2023/07/10 02:32:49;;;;;;;15.45;5.00;;;20.90;99.90;;;;;;5091450;28;20024;-69
2023/07/10 02:35:15;;;;;;;10.18;3.40;;;20.90;99.90;;;;;;5091577;28;20359;-70
2023/07/10 02:37:41;;;;;;;13.60;3.85;;;20.90;99.90;;;;;;5091243;28;20485;-69
2023/07/10 02:40:07;;;;;;;9.32;3.40;;;20.80;99.90;;;;;;5091362;28;20028;-69
2023/07/10 02:42:32;;;;;;;11.73;3.80;;;20.60;99.90;;;;;;5091847;28;20042;-69
2023/07/10 02:44:58;;;;;;;11.25;3.88;;;20.50;99.90;;;;;;5091334;28;20032;-69
2023/07/10 02:47:24;;;;;;;11.40;3.40;;;20.30;99.90;;;;;;5091310;28;20487;-70
2023/07/10 02:49:50;;;;;;;12.95;3.50;;;20.20;99.90;;;;;;5091628;28;20486;-69
2023/07/10 02:52:15;;;;;;;12.55;3.80;;;20.00;99.90;;;;;;5090864;28;20028;-69
2023/07/10 02:54:41;;;;;;;11.70;3.83;;;20.10;99.90;;;;;;5091163;28;20104;-69
2023/07/10 02:57:07;;;;;;;11.90;3.88;;;20.10;99.90;;;;;;5091190;28;20028;-69
2023/07/10 02:59:32;;;;;;;12.27;3.65;;;19.90;99.90;;;;;;5091565;28;20032;-69
2023/07/10 03:01:59;;;;;;;10.57;3.42;;;19.90;99.90;;;;;;5091061;28;20024;-69
2023/07/10 03:04:25;;;;;;;11.52;3.92;;;19.90;99.90;;;;;;5091242;28;20020;-70
2023/07/10 03:06:51;;;;;;;15.02;3.83;;;19.90;99.90;;;;;;5090786;28;20443;-70
2023/07/10 03:09:17;;;;;;;10.35;3.90;;;20.00;99.90;;;;;;5091133;28;20032;-70
2023/07/10 03:11:43;;;;;;;13.30;4.00;;;19.90;99.90;;;;;;5091025;28;20055;-69
2023/07/10 03:14:09;;;;;;;10.00;3.58;;;20.00;99.90;;;;;;5094243;28;20130;-69
2023/07/10 03:16:35;;;;;;;13.27;3.78;;;20.00;99.90;;;;;;5094968;28;20490;-69
2023/07/10 03:19:00;;;;;;;12.13;3.50;;;20.10;99.90;;;;;;5094661;28;20043;-69
2023/07/10 03:21:26;;;;;;;11.60;3.30;;;20.00;99.90;;;;;;5094809;28;20058;-70
2023/07/10 03:23:52;;;;;;;14.13;3.83;;;20.10;99.90;;;;;;5094508;28;20060;-69
2023/07/10 03:26:18;;;;;;;13.05;3.70;;;20.20;99.90;;;;;;5095286;28;20086;-69
2023/07/10 03:28:44;;;;;;;11.38;3.20;;;20.50;99.90;;;;;;5093646;28;20502;-69
2023/07/10 03:31:10;;;;;;;9.88;3.30;;;20.60;99.90;;;;;;5094608;28;20040;-69
2023/07/10 03:33:35;;;;;;;13.30;3.38;;;20.70;99.90;;;;;;5093315;28;20030;-69
2023/07/10 03:36:04;;;;;;;12.50;3.00;;;20.80;99.90;;;;;;5094685;28;20028;-69
2023/07/10 03:38:30;;;;;;;10.23;3.67;;;20.80;99.90;;;;;;5094717;28;20020;-69
2023/07/10 03:40:56;;;;;;;13.88;3.72;;;20.90;99.90;;;;;;5094496;28;20106;-69
2023/07/10 03:43:23;;;;;;;11.57;3.63;;;20.90;99.90;;;;;;5094755;28;20465;-69
2023/07/10 03:45:49;;;;;;;12.43;3.22;;;20.90;99.90;;;;;;5094444;28;20506;-69
2023/07/10 03:48:15;;;;;;;10.60;3.20;;;20.90;99.90;;;;;;5094999;28;20047;-69
2023/07/10 03:50:41;;;;;;;13.90;3.88;;;20.90;99.90;;;;;;5093844;28;20032;-69
2023/07/10 03:53:07;;;;;;;13.98;3.28;;;20.90;99.90;;;;;;5094496;28;20459;-69
2023/07/10 03:55:32;;;;;;;13.55;3.40;;;20.80;99.90;;;;;;5094301;28;20028;-70
2023/07/10 03:57:58;;;;;;;14.88;3.90;;;20.80;99.90;;;;;;5094219;28;20134;-69
2023/07/10 04:00:24;;;;;;;14.10;3.45;;;20.70;99.90;;;;;;5094143;28;20032;-69
2023/07/10 04:02:49;;;;;;;11.70;3.38;;;20.50;99.90;;;;;;5093879;28;20033;-69
2023/07/10 04:05:15;;;;;;;13.00;3.90;;;20.40;99.90;;;;;;5093984;28;20031;-69
2023/07/10 04:07:41;;;;;;;11.40;3.60;;;20.40;99.90;;;;;;5094240;28;20020;-70
2023/07/10 04:10:07;;;;;;;11.00;3.45;;;20.30;99.90;;;;;;5094474;28;20042;-69
2023/07/10 04:12:32;;;;;;;13.98;3.90;;;20.30;99.90;;;;;;5094018;28;20031;-69
2023/07/10 04:14:58;;;;;;;12.93;3.97;;;20.20;99.90;;;;;;5094288;28;20028;-70
2023/07/10 04:17:24;;;;;;;12.77;3.42;;;20.20;99.90;;;;;;5093568;28;20479;-70
2023/07/10 04:19:50;;;;;;;9.23;3.42;;;20.20;99.90;;;;;;5093515;28;20593;-69
2023/07/10 04:22:15;;;;;;;9.57;3.35;;;20.10;99.90;;;;;;5093549;28;20376;-69
2023/07/10 04:24:41;;;;;;;12.82;3.88;;;20.20;99.90;;;;;;5092441;28;20036;-69
2023/07/10 04:27:08;;;;;;;11.75;3.60;;;20.10;99.90;;;;;;5094117;28;20070;-70
2023/07/10 04:29:34;;;;;;;15.73;4.15;;;20.10;99.90;;;;;;5093616;28;20043;-69
2023/07/10 04:32:00;;;;;;;11.02;3.38;;;20.10;99.90;;;;;;5093537;28;20490;-69
2023/07/10 04:34:25;;;;;;;14.50;4.10;;;20.10;99.90;;;;;;5093334;28;20494;-69
2023/07/10 04:36:51;;;;;;;12.65;3.30;;;20.10;99.90;;;;;;5093790;28;20488;-70
2023/07/10 04:39:17;;;;;;;14.15;3.78;;;20.10;99.90;;;;;;5093507;28;20024;-69
2023/07/10 04:41:44;;;;;;;12.88;4.03;;;20.10;99.90;;;;;;5093683;28;20024;-69
2023/07/10 04:44:10;;;;;;;10.18;3.88;;;20.20;99.90;;;;;;5093385;28;20040;-69
2023/07/10 04:46:35;;;;;;;11.98;3.50;;;20.30;99.90;;;;;;5091833;28;20547;-69
2023/07/10 04:49:01;;;;;;;14.32;3.80;;;20.50;99.90;;;;;;5091548;28;20032;-69
2023/07/10 04:51:27;;;;;;;11.50;3.72;;;20.60;99.90;;;;;;5093090;28;20043;-69
2023/07/10 04:53:53;;;;;;;12.07;3.75;;;20.70;99.90;;;;;;5093065;28;20162;-69
2023/07/10 04:56:19;;;;;;;11.00;3.50;;;20.70;99.90;;;;;;5093139;28;20024;-69
2023/07/10 04:58:56;;;;;;;10.68;3.50;;;20.70;99.90;;;;;;5093001;28;20020;-69
2023/07/10 05:01:25;;;;;;;13.07;3.55;;;20.70;99.90;;;;;;5092836;28;20028;-70
2023/07/10 05:03:50;;;;;;;10.13;3.60;;;20.70;99.90;;;;;;5092673;28;20058;-69
2023/07/10 05:06:17;;;;;;;13.52;3.50;;;20.70;99.90;;;;;;5093181;28;20498;-69
2023/07/10 05:08:43;;;;;;;14.23;3.75;;;20.80;99.90;;;;;;5092790;28;20513;-69
2023/07/10 05:11:09;;;;;;;11.35;3.33;;;20.80;99.90;;;;;;5093232;28;20115;-70
2023/07/10 05:13:35;;;;;;;10.23;3.00;;;20.80;99.90;;;;;;5092894;28;20493;-70
2023/07/10 05:16:01;;;;;;;13.32;3.83;;;20.80;99.90;;;;;;5092768;28;20024;-69
2023/07/10 05:18:29;;;;;;;14.30;3.63;;;20.80;99.90;;;;;;5092243;28;20115;-69
2023/07/10 05:20:56;;;;;;;9.35;3.20;;;20.60;99.90;;;;;;5092610;28;20032;-69
2023/07/10 05:23:22;;;;;;;11.75;3.58;;;20.50;99.90;;;;;;5092321;28;20514;-69
2023/07/10 05:25:54;;;;;;;12.25;3.65;;;20.50;99.90;;;;;;5092575;28;20036;-69
2023/07/10 05:28:20;;;;;;;13.23;3.55;;;20.40;99.90;;;;;;5092829;28;20035;-70
2023/07/10 05:30:46;;;;;;;11.95;3.35;;;20.40;99.90;;;;;;5092316;28;20024;-69
2023/07/10 05:33:11;;;;;;;11.13;3.60;;;20.30;99.90;;;;;;5092348;28;20498;-69
2023/07/10 05:35:37;;;;;;;13.05;3.55;;;20.20;99.90;;;;;;5092354;28;20039;-70
2023/07/10 05:38:03;;;;;;;14.15;4.05;;;20.20;99.90;;;;;;5092814;28;20024;-69
2023/07/10 05:40:28;;;;;;;13.77;3.78;;;20.20;99.90;;;;;;5092272;28;20035;-69
2023/07/10 05:42:54;;;;;;;11.48;3.22;;;20.20;99.90;;;;;;5092623;28;20032;-69
2023/07/10 05:45:19;;;;;;;12.65;3.50;;;20.20;99.90;;;;;;5092331;28;20028;-69
2023/07/10 05:47:45;;;;;;;11.93;3.40;;;20.20;99.90;;;;;;5091653;28;20032;-69
2023/07/10 05:50:11;;;;;;;10.48;3.15;;;20.20;99.90;;;;;;5092213;28;20115;-69
2023/07/10 05:52:36;;;;;;;13.77;3.60;;;20.20;99.90;;;;;;5091149;28;20117;-69
2023/07/10 05:55:02;;;;;;;12.77;3.47;;;20.20;99.90;;;;;;5092110;28;20032;-69
2023/07/10 05:57:28;;;;;;;11.68;3.50;;;20.20;99.90;;;;;;5091774;28;20027;-69
2023/07/10 05:59:53;;;;;;;13.70;3.60;;;20.20;99.90;;;;;;5091821;28;20032;-69
2023/07/10 06:02:19;;;;;;;14.77;3.90;;;20.20;99.90;;;;;;5091616;28;20027;-69
2023/07/10 06:04:45;;;;;;;11.43;3.40;;;20.40;99.90;;;;;;5091920;28;20020;-69
2023/07/10 06:07:10;;;;;;;14.43;3.75;;;20.70;99.90;;;;;;5091859;28;20466;-69
2023/07/10 06:09:36;;;;;;;14.23;3.47;;;20.90;99.90;;;;;;5091759;28;20027;-69
2023/07/10 06:12:02;;;;;;;14.10;3.33;;;21.00;99.90;;;;;;5092020;28;20040;-69
2023/07/10 06:14:28;;;;;;;14.40;3.38;;;21.00;99.90;;;;;;5091600;28;20024;-69
2023/07/10 06:16:53;;;;;;;12.82;4.10;;;21.10;99.90;;;;;;5091142;28;20070;-69
2023/07/10 06:19:20;;;;;;;13.40;3.53;;;21.00;99.90;;;;;;5091399;28;20036;-69
2023/07/10 06:21:47;;;;;;;14.68;3.78;;;21.10;99.90;;;;;;5091969;28;20494;-69
2023/07/10 06:24:12;;;;;;;8.07;2.92;;;21.10;99.90;;;;;;5091736;28;20059;-68
2023/07/10 06:26:38;;;;;;;10.45;3.40;;;21.20;99.90;;;;;;5091444;28;20024;-69
2023/07/10 06:29:04;;;;;;;11.98;3.40;;;21.30;99.90;;;;;;5091529;28;20023;-69
2023/07/10 06:31:29;;;;;;;11.85;3.35;;;21.40;99.90;;;;;;5091144;28;20124;-69
2023/07/10 06:33:55;;;;;;;13.52;4.07;;;21.50;99.90;;;;;;5091774;28;20020;-67
2023/07/10 06:36:21;;;;;;;12.75;3.53;;;21.40;99.90;;;;;;5091667;28;20032;-69
2023/07/10 06:38:46;;;;;;;12.65;3.88;;;21.30;99.90;;;;;;5091242;28;20020;-69
2023/07/10 06:41:13;;;;;;;11.63;3.00;;;21.20;99.90;;;;;;5091249;28;20371;-70
2023/07/10 06:43:39;;;;;;;12.32;3.65;;;21.10;99.90;;;;;;5091219;28;20186;-69
2023/07/10 06:46:04;;;;;;;9.80;3.30;;;21.00;99.90;;;;;;5091272;28;20457;-69
2023/07/10 06:48:30;;;;;;;13.50;3.17;;;21.00;99.90;;;;;;5090638;28;20035;-69
2023/07/10 06:50:56;;;;;;;10.70;3.17;;;20.90;99.90;;;;;;5091342;28;20032;-70
2023/07/10 06:53:23;;;;;;;13.05;3.53;;;20.90;99.90;;;;;;5091297;28;20048;-69
2023/07/10 06:56:01;;;;;;;11.85;3.42;;;20.90;99.90;;;;;;5091181;28;20035;-69
2023/07/10 06:58:30;;;;;;;12.63;3.72;;;20.90;99.90;;;;;;5090875;28;20047;-69
2023/07/10 07:00:56;;;;;;;13.00;3.30;;;21.00;99.90;;;;;;5091222;28;20028;-69
2023/07/10 07:03:22;;;;;;;11.85;3.28;;;21.00;99.90;;;;;;5091235;28;20028;-70
2023/07/10 07:05:47;;;;;;;13.60;3.50;;;21.00;99.90;;;;;;5091330;28;20518;-68
2023/07/10 07:08:14;;;;;;;12.05;3.17;;;21.10;99.90;;;;;;5090941;28;20032;-69
2023/07/10 07:10:43;;;;;;;12.80;3.17;;;21.10;99.90;;;;;;5090830;28;20485;-69
2023/07/10 07:13:09;;;;;;;13.02;3.42;;;21.10;99.90;;;;;;5090880;28;20071;-69
2023/07/10 07:15:36;;;;;;;12.77;3.38;;;21.20;99.90;;;;;;5091398;28;20487;-69
2023/07/10 07:18:03;;;;;;;11.43;3.35;;;21.20;99.90;;;;;;5090786;28;20028;-69
2023/07/10 07:20:33;;;;;;;10.48;3.17;;;21.30;99.90;;;;;;5091105;28;20518;-69
2023/07/10 07:22:59;;;;;;;10.85;3.10;;;21.40;99.90;;;;;;5091149;28;20472;-69
2023/07/10 07:25:27;;;;;;;14.68;3.65;;;21.60;99.90;;;;;;5090903;28;20034;-69
2023/07/10 07:27:53;;;;;;;11.70;3.05;;;21.80;99.90;;;;;;5090594;28;20042;-69
2023/07/10 07:30:18;;;;;;;10.70;3.53;;;22.00;99.90;;;;;;5091160;28;20482;-69
2023/07/10 07:32:44;;;;;;;12.27;3.45;;;22.10;99.90;;;;;;5090963;28;20372;-69
2023/07/10 07:35:10;;;;;;;11.30;2.92;;;22.20;99.90;;;;;;5090881;28;20028;-69
2023/07/10 07:37:36;;;;;;;10.90;3.30;;;22.40;99.90;;;;;;5090738;28;20024;-70
2023/07/10 07:40:02;;;;;;;11.90;3.50;;;22.40;99.90;;;;;;5090584;28;20020;-69
2023/07/10 07:42:28;;;;;;;8.90;3.03;;;22.40;99.90;;;;;;5090683;28;20028;-69
2023/07/10 07:44:57;;;;;;;10.10;3.22;;;22.60;99.90;;;;;;5090621;28;20030;-69
2023/07/10 07:47:23;;;;;;;10.32;3.33;;;22.60;99.90;;;;;;5090879;28;20095;-69
2023/07/10 07:49:49;;;;;;;11.30;3.25;;;22.60;99.90;;;;;;5089282;28;20032;-70
2023/07/10 07:52:14;;;;;;;11.15;3.40;;;22.60;99.90;;;;;;5091033;28;20028;-69
2023/07/10 07:54:40;;;;;;;13.93;3.83;;;22.60;99.90;;;;;;5090802;28;20496;-69
2023/07/10 07:57:06;;;;;;;11.00;3.35;;;22.70;99.90;;;;;;5090509;28;20390;-69
2023/07/10 07:59:31;;;;;;;9.23;3.13;;;22.70;99.90;;;;;;5092649;28;20418;-70
2023/07/10 08:01:57;;;;;;;12.63;3.53;;;22.50;99.90;;;;;;5094413;28;20055;-70
2023/07/10 08:04:23;;;;;;;11.00;3.05;;;22.40;99.90;;;;;;5094011;28;20024;-69
2023/07/10 08:06:49;;;;;;;10.13;3.22;;;22.30;99.90;;;;;;5094432;28;20028;-69
2023/07/10 08:09:15;;;;;;;8.50;2.90;;;22.30;99.90;;;;;;5093852;28;20016;-69
2023/07/10 08:11:41;;;;;;;10.98;3.50;;;22.30;99.90;;;;;;5093696;28;20032;-69
2023/07/10 08:14:07;;;;;;;8.38;2.80;;;22.30;99.90;;;;;;5094031;28;20086;-70
2023/07/10 08:16:32;;;;;;;8.65;2.80;;;22.40;99.90;;;;;;5093997;28;20036;-70
2023/07/10 08:18:58;;;;;;;11.55;3.55;;;22.40;99.90;;;;;;5094268;28;20020;-69
2023/07/10 08:21:24;;;;;;;10.13;2.90;;;22.50;99.90;;;;;;5093991;28;20016;-69
2023/07/10 08:23:49;;;;;;;12.38;3.20;;;22.60;99.90;;;;;;5093625;28;20052;-69
2023/07/10 08:26:15;;;;;;;12.88;3.13;;;22.60;99.90;;;;;;5093752;28;20032;-70
2023/07/10 08:28:41;;;;;;;9.77;2.92;;;22.60;99.90;;;;;;5093712;28;20016;-70
2023/07/10 08:31:06;;;;;;;11.73;2.95;;;22.60;99.90;;;;;;5093840;28;20509;-69
2023/07/10 08:33:32;;;;;;;10.02;3.00;;;22.60;99.90;;;;;;5093702;28;20024;-70
2023/07/10 08:36:01;;;;;;;8.93;2.80;;;22.60;99.90;;;;;;5093385;28;20039;-70
2023/07/10 08:38:27;;;;;;;9.65;2.97;;;22.70;99.90;;;;;;5093872;28;20020;-69
2023/07/10 08:40:55;;;;;;;12.20;3.17;;;22.60;99.90;;;;;;5093210;28;20042;-69
2023/07/10 08:43:32;;;;;;;10.73;2.90;;;22.70;99.90;;;;;;5093282;28;20055;-69
2023/07/10 08:46:06;;;;;;;8.80;2.75;;;23.10;99.90;;;;;;5093560;28;20028;-69
2023/07/10 08:48:36;;;;;;;10.00;2.80;;;23.30;99.90;;;;;;5093503;28;20570;-69
2023/07/10 08:51:20;;;;;;;8.43;3.17;;;23.40;99.90;;;;;;5093228;28;20046;-69
2023/07/10 08:53:53;;;;;;;10.95;2.70;;;23.40;99.90;;;;;;5093331;28;20028;-69
2023/07/10 08:56:21;;;;;;;8.52;3.00;;;23.50;99.90;;;;;;5092840;28;20028;-69
2023/07/10 08:58:47;;;;;;;7.80;2.63;;;23.60;99.90;;;;;;5093065;28;20036;-69
2023/07/10 09:01:49;;;;;;;8.13;2.88;;;23.80;99.90;;;;;;5093421;28;20402;-69
2023/07/10 09:04:17;;;;;;;11.32;2.80;;;23.90;99.90;;;;;;5030500;28;20030;-69
2023/07/10 09:06:52;;;;;;;9.43;2.92;;;23.90;99.90;;;;;;5030569;28;20040;-69
2023/07/10 09:09:48;;;;;;;6.65;2.53;;;24.10;99.90;;;;;;5030249;28;20017;-69
2023/07/10 09:12:34;;;;;;;11.00;2.92;;;24.00;99.90;;;;;;5030087;28;20046;-69
2023/07/10 09:15:10;;;;;;;9.18;2.88;;;24.20;99.90;;;;;;5030300;28;20030;-68
2023/07/10 09:18:13;;;;;;;9.48;2.70;;;24.20;99.90;;;;;;5030302;28;20037;-69
2023/07/10 09:20:39;;;;;;;6.63;2.50;;;24.10;99.90;;;;;;5030521;28;20033;-68
2023/07/10 09:23:13;;;;;;;6.93;2.30;;;24.00;99.90;;;;;;5030142;28;20038;-68
2023/07/10 09:25:39;;;;;;;7.70;3.00;;;23.90;99.90;;;;;;5030527;28;20112;-67
2023/07/10 09:28:05;;;;;;;8.02;2.60;;;23.90;99.90;;;;;;5029969;28;20464;-68
2023/07/10 09:31:05;;;;;;;7.57;2.70;;;23.80;99.90;;;;;;5029969;28;20041;-68
2023/07/10 09:34:00;;;;;;;8.15;2.90;;;23.80;99.90;;;;;;5029902;28;20041;-68
2023/07/10 09:36:27;;;;;;;8.48;3.33;;;23.80;99.90;;;;;;5028500;28;20037;-68
2023/07/10 09:38:53;;;;;;;8.95;3.20;;;23.90;99.90;;;;;;5034587;28;20029;-68
2023/07/10 09:41:20;;;;;;;8.88;2.92;;;23.80;99.90;;;;;;5072129;28;20028;-68
2023/07/10 09:44:21;;;;;;;9.50;3.10;;;23.90;99.90;;;;;;5071414;28;20406;-68
2023/07/10 09:46:48;;;;;;;9.27;3.10;;;23.80;99.90;;;;;;5071810;28;20100;-68
2023/07/10 09:49:22;;;;;;;9.27;2.90;;;23.90;99.90;;;;;;5071247;28;20029;-68
2023/07/10 09:51:58;;;;;;;8.77;3.00;;;24.00;99.90;;;;;;5083269;28;20050;-65
2023/07/10 09:54:24;;;;;;;12.68;3.40;;;24.10;99.90;;;;;;5075689;28;20028;-64
2023/07/10 09:56:54;;;;;;;9.88;2.90;;;24.20;99.90;;;;;;5084609;28;20036;-65
2023/07/10 09:59:24;;;;;;;5.13;2.28;;;24.20;99.90;;;;;;5077381;28;20035;-65
2023/07/10 10:01:52;;;;;;;8.68;2.55;;;24.20;99.90;;;;;;5083100;28;20518;-66
2023/07/10 10:04:27;;;;;;;8.02;2.55;;;24.50;99.90;;;;;;5079451;28;20024;-66
2023/07/10 10:07:04;;;;;;;8.38;2.80;;;24.80;99.90;;;;;;5091223;28;20402;-65
2023/07/10 10:09:30;;;;;;;7.22;2.45;;;24.90;99.90;;;;;;5087168;28;20061;-65
2023/07/10 10:12:12;;;;;;;6.35;3.05;;;25.00;99.90;;;;;;5070951;28;20399;-66
2023/07/10 10:14:51;;;;;;;9.50;3.00;;;25.30;99.90;;;;;;5091365;28;20379;-65
2023/07/10 10:17:21;;;;;;;7.32;2.80;;;25.40;99.90;;;;;;5072361;28;20059;-65
2023/07/10 10:19:53;;;;;;;8.45;2.83;;;25.30;99.90;;;;;;5091792;28;20069;-67
2023/07/10 10:22:23;;;;;;;7.10;2.70;;;25.40;99.90;;;;;;5089755;28;20020;-64
2023/07/10 10:24:49;;;;;;;9.75;2.78;;;25.50;99.90;;;;;;5091496;28;20028;-65
2023/07/10 10:27:24;;;;;;;7.80;2.90;;;25.70;99.90;;;;;;5091563;28;20035;-66
2023/07/10 10:29:58;;;;;;;15.90;4.90;;;25.80;99.90;;;;;;5090522;28;20557;-66
2023/07/10 10:32:36;;;;;;;18.05;5.18;;;25.90;99.90;;;;;;5082420;28;20103;-66
2023/07/10 10:35:19;;;;;;;10.63;4.10;;;26.00;99.90;;;;;;5072568;28;20482;-65
2023/07/10 10:38:02;;;;;;;17.15;5.35;;;26.00;99.90;;;;;;5069464;28;20035;-66
2023/07/10 10:40:40;;;;;;;26.23;7.70;;;26.10;99.90;;;;;;5084847;28;20122;-65
2023/07/10 10:43:15;;;;;;;32.00;9.52;;;26.10;99.90;;;;;;5083143;28;20055;-65
2023/07/10 10:45:57;;;;;;;28.50;9.90;;;26.10;99.90;;;;;;5080143;28;20027;-64
2023/07/10 10:48:41;;;;;;;15.95;4.68;;;26.00;99.90;;;;;;5091222;28;20047;-65
2023/07/10 10:51:28;;;;;;;9.50;3.30;;;26.10;99.90;;;;;;5071275;28;20040;-65
2023/07/10 10:54:18;;;;;;;7.10;3.20;;;26.10;99.90;;;;;;5070995;28;20021;-65
2023/07/10 10:57:06;;;;;;;10.32;3.40;;;26.10;99.90;;;;;;5071104;28;20453;-64
2023/07/10 10:59:37;;;;;;;6.38;3.17;;;26.10;99.90;;;;;;5070661;28;20078;-65
2023/07/10 11:02:12;;;;;;;9.50;3.38;;;26.20;99.90;;;;;;5070670;28;20032;-66
2023/07/10 11:05:01;;;;;;;8.38;2.80;;;26.30;99.90;;;;;;5070766;28;20440;-66
2023/07/10 11:07:28;;;;;;;6.25;2.85;;;26.20;99.90;;;;;;5070897;28;20033;-65
2023/07/10 11:09:58;;;;;;;9.50;2.58;;;26.30;99.90;;;;;;5070711;28;20464;-66
2023/07/10 11:12:27;;;;;;;7.82;2.60;;;26.40;99.90;;;;;;5070841;28;20033;-64
2023/07/10 11:14:59;;;;;;;12.43;2.72;;;26.50;99.90;;;;;;5070704;28;20025;-65
2023/07/10 11:17:25;;;;;;;6.47;2.40;;;26.50;99.90;;;;;;5073076;28;20055;-65
2023/07/10 11:19:52;;;;;;;5.68;2.70;;;26.60;99.90;;;;;;5090577;28;20483;-64
2023/07/10 11:22:35;;;;;;;6.22;2.28;;;26.60;99.90;;;;;;5090869;28;20058;-66
2023/07/10 11:25:02;;;;;;;6.03;2.63;;;26.70;99.90;;;;;;5090651;28;20097;-64
2023/07/10 11:27:33;;;;;;;9.45;2.85;;;27.00;99.90;;;;;;5090797;28;20411;-65
2023/07/10 11:30:14;;;;;;;6.38;2.33;;;27.20;99.90;;;;;;5090975;28;20040;-65
2023/07/10 11:33:25;;;;;;;6.57;2.65;;;27.30;99.90;;;;;;5090908;28;20031;-66
2023/07/10 11:36:14;;;;;;;5.07;2.60;;;27.50;99.90;;;;;;5093084;28;20036;-66
2023/07/10 11:38:57;;;;;;;11.55;2.42;;;27.40;99.90;;;;;;5102405;28;20028;-66
2023/07/10 11:41:27;;;;;;;5.97;2.58;;;27.60;99.90;;;;;;5101827;28;20390;-66
2023/07/10 11:44:10;;;;;;;5.85;2.58;;;27.60;99.90;;;;;;5103028;28;20081;-66
2023/07/10 11:46:36;;;;;;;6.80;2.65;;;27.70;99.90;;;;;;5102898;28;20494;-65
2023/07/10 11:49:11;;;;;;;5.65;2.63;;;27.70;99.90;;;;;;5104367;28;20106;-65
2023/07/10 11:51:38;;;;;;;6.45;2.55;;;27.70;99.90;;;;;;5104976;28;20486;-63
2023/07/10 11:54:04;;;;;;;6.80;2.70;;;27.70;99.90;;;;;;5103894;28;20474;-65
2023/07/10 11:56:30;;;;;;;5.32;2.55;;;27.70;99.90;;;;;;5102744;28;20060;-65
2023/07/10 11:58:58;;;;;;;5.43;2.40;;;27.80;99.90;;;;;;5114202;28;20019;-65
2023/07/10 12:01:25;;;;;;;7.10;2.70;;;27.70;99.90;;;;;;5113893;28;20103;-65
2023/07/10 12:03:55;;;;;;;5.18;2.40;;;27.70;99.90;;;;;;5090841;28;20035;-65
2023/07/10 12:06:24;;;;;;;5.68;2.35;;;27.90;99.90;;;;;;5082256;28;20032;-65
2023/07/10 12:08:51;;;;;;;5.32;2.78;;;27.90;99.90;;;;;;5076063;28;20020;-65
2023/07/10 12:11:28;;;;;;;5.90;2.60;;;27.90;99.90;;;;;;5085504;28;20041;-65
2023/07/10 12:13:54;;;;;;;5.03;2.40;;;27.80;99.90;;;;;;5084587;28;20106;-65
2023/07/10 12:16:22;;;;;;;5.38;2.42;;;28.00;99.90;;;;;;5082097;28;20056;-65
2023/07/10 12:18:47;;;;;;;6.53;2.60;;;28.10;99.90;;;;;;5082475;28;20046;-65
2023/07/10 12:21:20;;;;;;;6.60;3.13;;;28.00;99.90;;;;;;5084949;28;20020;-65
2023/07/10 12:23:59;;;;;;;6.95;3.08;;;27.90;99.90;;;;;;5073401;28;20093;-64
2023/07/10 12:26:25;;;;;;;8.10;3.20;;;28.00;99.90;;;;;;5073246;28;20070;-65
2023/07/10 12:28:56;;;;;;;5.90;2.83;;;28.00;99.90;;;;;;5073579;28;20036;-64
2023/07/10 12:31:24;;;;;;;6.72;2.95;;;28.10;99.90;;;;;;5073344;28;20033;-65
2023/07/10 12:33:52;;;;;;;6.13;2.50;;;28.20;99.90;;;;;;5084133;28;20050;-64
2023/07/10 12:36:31;;;;;;;5.47;2.60;;;28.40;99.90;;;;;;5073246;28;20027;-65
2023/07/10 12:38:59;;;;;;;6.68;2.67;;;28.40;99.90;;;;;;5072771;28;20070;-64
2023/07/10 12:41:30;;;;;;;6.53;2.60;;;28.40;99.90;;;;;;5073296;28;20479;-64
2023/07/10 12:44:00;;;;;;;8.00;2.55;;;28.30;99.90;;;;;;5073074;28;20399;-65
2023/07/10 12:46:28;;;;;;;7.65;2.58;;;28.30;99.90;;;;;;5071749;28;20028;-64
2023/07/10 12:49:09;;;;;;;5.75;2.55;;;28.50;99.90;;;;;;5073410;28;20079;-65
2023/07/10 12:51:39;;;;;;;7.13;2.50;;;28.50;99.90;;;;;;5073306;28;20047;-65